sensor_id;sensor_type;location;lat;lon;timestamp;P1;durP1;ratioP1;P2;durP2;ratioP2
19891;SDS011;10108;50.142;8.724;2023-04-16T00:00:52;15.15;;;11.27;;
19891;SDS011;10108;50.142;8.724;2023-04-16T00:03:18;15.98;;;11.52;;
19891;SDS011;10108;50.142;8.724;2023-04-16T00:05:44;14.00;;;10.77;;
19891;SDS011;10108;50.142;8.724;2023-04-16T00:08:10;14.48;;;11.50;;
19891;SDS011;10108;50.142;8.724;2023-04-16T00:10:36;15.68;;;11.07;;
19891;SDS011;10108;50.142;8.724;2023-04-16T00:13:02;15.38;;;11.75;;
19891;SDS011;10108;50.142;8.724;2023-04-16T00:15:28;17.60;;;11.70;;
19891;SDS011;10108;50.142;8.724;2023-04-16T00:17:54;18.55;;;11.70;;
19891;SDS011;10108;50.142;8.724;2023-04-16T00:20:21;17.75;;;11.52;;
19891;SDS011;10108;50.142;8.724;2023-04-16T00:22:47;16.05;;;11.07;;
19891;SDS011;10108;50.142;8.724;2023-04-16T00:25:13;17.25;;;10.80;;
19891;SDS011;10108;50.142;8.724;2023-04-16T00:27:39;19.27;;;11.52;;
19891;SDS011;10108;50.142;8.724;2023-04-16T00:30:06;14.55;;;10.48;;
19891;SDS011;10108;50.142;8.724;2023-04-16T00:32:32;15.10;;;10.80;;
19891;SDS011;10108;50.142;8.724;2023-04-16T00:34:58;14.98;;;10.82;;
19891;SDS011;10108;50.142;8.724;2023-04-16T00:37:24;16.60;;;10.73;;
19891;SDS011;10108;50.142;8.724;2023-04-16T00:39:51;14.70;;;10.77;;
19891;SDS011;10108;50.142;8.724;2023-04-16T00:42:17;15.93;;;10.70;;
19891;SDS011;10108;50.142;8.724;2023-04-16T00:44:43;16.52;;;10.95;;
19891;SDS011;10108;50.142;8.724;2023-04-16T00:47:09;14.50;;;10.15;;
19891;SDS011;10108;50.142;8.724;2023-04-16T00:49:36;14.07;;;10.05;;
19891;SDS011;10108;50.142;8.724;2023-04-16T00:52:02;15.52;;;10.52;;
19891;SDS011;10108;50.142;8.724;2023-04-16T00:54:29;15.82;;;10.60;;
19891;SDS011;10108;50.142;8.724;2023-04-16T00:56:56;14.80;;;10.55;;
19891;SDS011;10108;50.142;8.724;2023-04-16T00:59:24;17.05;;;10.60;;
19891;SDS011;10108;50.142;8.724;2023-04-16T01:01:51;16.10;;;9.98;;
19891;SDS011;10108;50.142;8.724;2023-04-16T01:04:17;15.30;;;10.25;;
19891;SDS011;10108;50.142;8.724;2023-04-16T01:06:43;14.65;;;10.05;;
19891;SDS011;10108;50.142;8.724;2023-04-16T01:09:09;16.77;;;10.40;;
19891;SDS011;10108;50.142;8.724;2023-04-16T01:11:36;15.95;;;10.38;;
19891;SDS011;10108;50.142;8.724;2023-04-16T01:14:02;13.93;;;10.05;;
19891;SDS011;10108;50.142;8.724;2023-04-16T01:16:29;16.67;;;9.95;;
19891;SDS011;10108;50.142;8.724;2023-04-16T01:18:55;15.07;;;10.07;;
19891;SDS011;10108;50.142;8.724;2023-04-16T01:21:21;14.98;;;9.90;;
19891;SDS011;10108;50.142;8.724;2023-04-16T01:23:47;18.65;;;11.00;;
19891;SDS011;10108;50.142;8.724;2023-04-16T01:26:13;15.55;;;10.50;;
19891;SDS011;10108;50.142;8.724;2023-04-16T01:28:40;15.40;;;10.30;;
19891;SDS011;10108;50.142;8.724;2023-04-16T01:31:06;15.05;;;10.45;;
19891;SDS011;10108;50.142;8.724;2023-04-16T01:33:51;17.02;;;10.55;;
19891;SDS011;10108;50.142;8.724;2023-04-16T01:36:17;17.40;;;10.55;;
19891;SDS011;10108;50.142;8.724;2023-04-16T01:38:44;16.02;;;10.30;;
19891;SDS011;10108;50.142;8.724;2023-04-16T01:41:10;17.10;;;10.95;;
19891;SDS011;10108;50.142;8.724;2023-04-16T01:43:36;15.55;;;10.32;;
19891;SDS011;10108;50.142;8.724;2023-04-16T01:48:52;15.68;;;9.80;;
19891;SDS011;10108;50.142;8.724;2023-04-16T01:51:19;16.02;;;10.43;;
19891;SDS011;10108;50.142;8.724;2023-04-16T01:53:46;16.77;;;10.27;;
19891;SDS011;10108;50.142;8.724;2023-04-16T01:56:14;16.08;;;10.25;;
19891;SDS011;10108;50.142;8.724;2023-04-16T01:58:40;17.08;;;10.75;;
19891;SDS011;10108;50.142;8.724;2023-04-16T02:01:07;14.60;;;10.10;;
19891;SDS011;10108;50.142;8.724;2023-04-16T02:03:34;15.80;;;10.23;;
19891;SDS011;10108;50.142;8.724;2023-04-16T02:06:02;18.05;;;10.15;;
19891;SDS011;10108;50.142;8.724;2023-04-16T02:08:28;15.93;;;10.73;;
19891;SDS011;10108;50.142;8.724;2023-04-16T02:10:55;15.95;;;10.35;;
19891;SDS011;10108;50.142;8.724;2023-04-16T02:13:23;15.55;;;10.25;;
19891;SDS011;10108;50.142;8.724;2023-04-16T02:15:51;14.80;;;10.05;;
19891;SDS011;10108;50.142;8.724;2023-04-16T02:18:30;15.35;;;10.75;;
19891;SDS011;10108;50.142;8.724;2023-04-16T02:20:57;15.05;;;10.23;;
19891;SDS011;10108;50.142;8.724;2023-04-16T02:23:26;16.35;;;9.90;;
19891;SDS011;10108;50.142;8.724;2023-04-16T02:25:53;14.88;;;9.95;;
19891;SDS011;10108;50.142;8.724;2023-04-16T02:28:19;15.25;;;10.20;;
19891;SDS011;10108;50.142;8.724;2023-04-16T02:30:45;15.20;;;10.25;;
19891;SDS011;10108;50.142;8.724;2023-04-16T02:33:14;16.52;;;10.48;;
19891;SDS011;10108;50.142;8.724;2023-04-16T02:35:50;17.33;;;10.15;;
19891;SDS011;10108;50.142;8.724;2023-04-16T02:38:16;15.75;;;10.23;;
19891;SDS011;10108;50.142;8.724;2023-04-16T02:40:42;16.42;;;10.55;;
19891;SDS011;10108;50.142;8.724;2023-04-16T02:43:08;15.57;;;10.60;;
19891;SDS011;10108;50.142;8.724;2023-04-16T02:45:35;15.00;;;10.65;;
19891;SDS011;10108;50.142;8.724;2023-04-16T02:48:01;16.17;;;10.57;;
19891;SDS011;10108;50.142;8.724;2023-04-16T02:50:27;15.98;;;10.25;;
19891;SDS011;10108;50.142;8.724;2023-04-16T02:52:53;16.70;;;11.15;;
19891;SDS011;10108;50.142;8.724;2023-04-16T02:55:19;15.52;;;10.68;;
19891;SDS011;10108;50.142;8.724;2023-04-16T02:57:45;16.83;;;10.52;;
19891;SDS011;10108;50.142;8.724;2023-04-16T03:00:11;17.00;;;10.77;;
19891;SDS011;10108;50.142;8.724;2023-04-16T03:02:38;16.33;;;10.63;;
19891;SDS011;10108;50.142;8.724;2023-04-16T03:05:04;17.60;;;10.80;;
19891;SDS011;10108;50.142;8.724;2023-04-16T03:07:30;18.50;;;11.30;;
19891;SDS011;10108;50.142;8.724;2023-04-16T03:09:56;17.23;;;11.02;;
19891;SDS011;10108;50.142;8.724;2023-04-16T03:12:23;19.08;;;11.07;;
19891;SDS011;10108;50.142;8.724;2023-04-16T03:14:49;16.45;;;11.38;;
19891;SDS011;10108;50.142;8.724;2023-04-16T03:17:17;17.73;;;11.57;;
19891;SDS011;10108;50.142;8.724;2023-04-16T03:19:43;21.25;;;11.98;;
19891;SDS011;10108;50.142;8.724;2023-04-16T03:22:09;19.50;;;12.00;;
19891;SDS011;10108;50.142;8.724;2023-04-16T03:24:35;17.92;;;11.80;;
19891;SDS011;10108;50.142;8.724;2023-04-16T03:27:02;18.25;;;11.93;;
19891;SDS011;10108;50.142;8.724;2023-04-16T03:29:28;17.77;;;12.05;;
19891;SDS011;10108;50.142;8.724;2023-04-16T03:31:55;16.45;;;11.50;;
19891;SDS011;10108;50.142;8.724;2023-04-16T03:34:22;18.77;;;11.63;;
19891;SDS011;10108;50.142;8.724;2023-04-16T03:36:48;17.13;;;10.63;;
19891;SDS011;10108;50.142;8.724;2023-04-16T03:39:14;19.70;;;11.32;;
19891;SDS011;10108;50.142;8.724;2023-04-16T03:41:40;18.15;;;11.60;;
19891;SDS011;10108;50.142;8.724;2023-04-16T03:44:07;19.50;;;12.27;;
19891;SDS011;10108;50.142;8.724;2023-04-16T03:46:33;20.08;;;11.95;;
19891;SDS011;10108;50.142;8.724;2023-04-16T03:49:00;18.00;;;11.18;;
19891;SDS011;10108;50.142;8.724;2023-04-16T03:51:27;16.83;;;11.40;;
19891;SDS011;10108;50.142;8.724;2023-04-16T03:53:53;19.95;;;12.07;;
19891;SDS011;10108;50.142;8.724;2023-04-16T03:56:19;18.40;;;11.57;;
19891;SDS011;10108;50.142;8.724;2023-04-16T03:58:45;16.92;;;10.95;;
19891;SDS011;10108;50.142;8.724;2023-04-16T04:01:12;18.85;;;11.60;;
19891;SDS011;10108;50.142;8.724;2023-04-16T04:03:38;18.15;;;11.80;;
19891;SDS011;10108;50.142;8.724;2023-04-16T04:06:07;19.35;;;11.13;;
19891;SDS011;10108;50.142;8.724;2023-04-16T04:08:34;17.90;;;11.32;;
19891;SDS011;10108;50.142;8.724;2023-04-16T04:11:02;16.23;;;11.30;;
19891;SDS011;10108;50.142;8.724;2023-04-16T04:13:29;18.20;;;11.60;;
19891;SDS011;10108;50.142;8.724;2023-04-16T04:15:57;18.45;;;12.27;;
19891;SDS011;10108;50.142;8.724;2023-04-16T04:18:23;16.75;;;11.13;;
19891;SDS011;10108;50.142;8.724;2023-04-16T04:20:49;17.67;;;11.27;;
19891;SDS011;10108;50.142;8.724;2023-04-16T04:23:18;17.20;;;11.68;;
19891;SDS011;10108;50.142;8.724;2023-04-16T04:25:45;20.08;;;12.02;;
19891;SDS011;10108;50.142;8.724;2023-04-16T04:28:12;19.45;;;12.20;;
19891;SDS011;10108;50.142;8.724;2023-04-16T04:30:38;17.98;;;11.52;;
19891;SDS011;10108;50.142;8.724;2023-04-16T04:33:05;16.48;;;10.50;;
19891;SDS011;10108;50.142;8.724;2023-04-16T04:35:31;16.95;;;10.43;;
19891;SDS011;10108;50.142;8.724;2023-04-16T04:37:59;16.70;;;10.90;;
19891;SDS011;10108;50.142;8.724;2023-04-16T04:40:27;16.90;;;10.55;;
19891;SDS011;10108;50.142;8.724;2023-04-16T04:42:53;15.70;;;10.40;;
19891;SDS011;10108;50.142;8.724;2023-04-16T04:45:21;14.00;;;10.27;;
19891;SDS011;10108;50.142;8.724;2023-04-16T04:47:51;17.02;;;10.93;;
19891;SDS011;10108;50.142;8.724;2023-04-16T04:50:17;17.25;;;10.05;;
19891;SDS011;10108;50.142;8.724;2023-04-16T04:52:44;15.45;;;10.35;;
19891;SDS011;10108;50.142;8.724;2023-04-16T04:55:10;15.15;;;9.93;;
19891;SDS011;10108;50.142;8.724;2023-04-16T04:57:37;15.10;;;10.13;;
19891;SDS011;10108;50.142;8.724;2023-04-16T05:00:04;16.38;;;9.70;;
19891;SDS011;10108;50.142;8.724;2023-04-16T05:02:38;14.90;;;9.60;;
19891;SDS011;10108;50.142;8.724;2023-04-16T05:05:04;15.93;;;10.25;;
19891;SDS011;10108;50.142;8.724;2023-04-16T05:07:31;15.30;;;9.32;;
19891;SDS011;10108;50.142;8.724;2023-04-16T05:09:57;14.57;;;9.15;;
19891;SDS011;10108;50.142;8.724;2023-04-16T05:12:23;14.73;;;9.73;;
19891;SDS011;10108;50.142;8.724;2023-04-16T05:14:49;13.27;;;9.23;;
19891;SDS011;10108;50.142;8.724;2023-04-16T05:17:15;14.02;;;9.35;;
19891;SDS011;10108;50.142;8.724;2023-04-16T05:19:41;16.10;;;9.93;;
19891;SDS011;10108;50.142;8.724;2023-04-16T05:22:07;15.30;;;9.57;;
19891;SDS011;10108;50.142;8.724;2023-04-16T05:24:34;13.98;;;9.20;;
19891;SDS011;10108;50.142;8.724;2023-04-16T05:27:00;16.13;;;9.07;;
19891;SDS011;10108;50.142;8.724;2023-04-16T05:29:26;16.33;;;9.02;;
19891;SDS011;10108;50.142;8.724;2023-04-16T05:31:52;15.10;;;9.90;;
19891;SDS011;10108;50.142;8.724;2023-04-16T05:34:18;14.52;;;9.52;;
19891;SDS011;10108;50.142;8.724;2023-04-16T05:36:44;14.32;;;9.25;;
19891;SDS011;10108;50.142;8.724;2023-04-16T05:39:10;17.48;;;9.55;;
19891;SDS011;10108;50.142;8.724;2023-04-16T05:41:37;18.00;;;9.30;;
19891;SDS011;10108;50.142;8.724;2023-04-16T05:44:03;15.73;;;9.43;;
19891;SDS011;10108;50.142;8.724;2023-04-16T05:46:29;15.20;;;9.50;;
19891;SDS011;10108;50.142;8.724;2023-04-16T05:48:55;14.82;;;10.10;;
19891;SDS011;10108;50.142;8.724;2023-04-16T05:51:21;15.40;;;9.30;;
19891;SDS011;10108;50.142;8.724;2023-04-16T05:53:50;18.08;;;10.13;;
19891;SDS011;10108;50.142;8.724;2023-04-16T05:56:16;15.55;;;9.88;;
19891;SDS011;10108;50.142;8.724;2023-04-16T05:58:42;16.77;;;10.07;;
19891;SDS011;10108;50.142;8.724;2023-04-16T06:01:09;17.08;;;10.00;;
19891;SDS011;10108;50.142;8.724;2023-04-16T06:03:35;15.00;;;10.30;;
19891;SDS011;10108;50.142;8.724;2023-04-16T06:06:01;18.52;;;11.25;;
19891;SDS011;10108;50.142;8.724;2023-04-16T06:08:27;17.60;;;10.93;;
19891;SDS011;10108;50.142;8.724;2023-04-16T06:10:54;15.52;;;10.77;;
19891;SDS011;10108;50.142;8.724;2023-04-16T06:13:21;17.45;;;10.82;;
19891;SDS011;10108;50.142;8.724;2023-04-16T06:15:47;16.45;;;11.20;;
19891;SDS011;10108;50.142;8.724;2023-04-16T06:18:13;17.35;;;10.80;;
19891;SDS011;10108;50.142;8.724;2023-04-16T06:20:39;17.27;;;11.43;;
19891;SDS011;10108;50.142;8.724;2023-04-16T06:23:05;17.00;;;12.13;;
19891;SDS011;10108;50.142;8.724;2023-04-16T06:25:31;18.15;;;12.68;;
19891;SDS011;10108;50.142;8.724;2023-04-16T06:27:57;18.15;;;12.30;;
19891;SDS011;10108;50.142;8.724;2023-04-16T06:30:23;17.02;;;11.82;;
19891;SDS011;10108;50.142;8.724;2023-04-16T06:32:50;16.70;;;11.70;;
19891;SDS011;10108;50.142;8.724;2023-04-16T06:35:16;18.50;;;12.10;;
19891;SDS011;10108;50.142;8.724;2023-04-16T06:37:44;17.38;;;12.68;;
19891;SDS011;10108;50.142;8.724;2023-04-16T06:40:11;16.48;;;12.85;;
19891;SDS011;10108;50.142;8.724;2023-04-16T06:42:37;16.38;;;13.07;;
19891;SDS011;10108;50.142;8.724;2023-04-16T06:45:03;20.05;;;14.43;;
19891;SDS011;10108;50.142;8.724;2023-04-16T06:47:30;19.25;;;13.52;;
19891;SDS011;10108;50.142;8.724;2023-04-16T06:49:56;18.52;;;13.77;;
19891;SDS011;10108;50.142;8.724;2023-04-16T06:52:22;20.17;;;14.25;;
19891;SDS011;10108;50.142;8.724;2023-04-16T06:54:48;18.60;;;14.18;;
19891;SDS011;10108;50.142;8.724;2023-04-16T06:57:14;18.40;;;14.65;;
19891;SDS011;10108;50.142;8.724;2023-04-16T06:59:40;19.10;;;14.35;;
19891;SDS011;10108;50.142;8.724;2023-04-16T07:02:08;20.05;;;14.77;;
19891;SDS011;10108;50.142;8.724;2023-04-16T07:04:35;21.48;;;15.52;;
19891;SDS011;10108;50.142;8.724;2023-04-16T07:07:01;19.42;;;14.50;;
19891;SDS011;10108;50.142;8.724;2023-04-16T07:09:27;19.35;;;14.90;;
19891;SDS011;10108;50.142;8.724;2023-04-16T07:11:53;19.73;;;14.80;;
19891;SDS011;10108;50.142;8.724;2023-04-16T07:14:19;19.38;;;14.65;;
19891;SDS011;10108;50.142;8.724;2023-04-16T07:16:45;19.02;;;15.30;;
19891;SDS011;10108;50.142;8.724;2023-04-16T07:19:11;20.85;;;15.15;;
19891;SDS011;10108;50.142;8.724;2023-04-16T07:21:37;23.50;;;15.95;;
19891;SDS011;10108;50.142;8.724;2023-04-16T07:24:04;19.80;;;15.60;;
19891;SDS011;10108;50.142;8.724;2023-04-16T07:26:30;20.65;;;15.32;;
19891;SDS011;10108;50.142;8.724;2023-04-16T07:28:56;22.52;;;15.40;;
19891;SDS011;10108;50.142;8.724;2023-04-16T07:31:22;20.35;;;15.23;;
19891;SDS011;10108;50.142;8.724;2023-04-16T07:33:48;22.95;;;15.65;;
19891;SDS011;10108;50.142;8.724;2023-04-16T07:36:14;22.42;;;15.95;;
19891;SDS011;10108;50.142;8.724;2023-04-16T07:38:41;23.63;;;16.23;;
19891;SDS011;10108;50.142;8.724;2023-04-16T07:41:07;21.85;;;16.20;;
19891;SDS011;10108;50.142;8.724;2023-04-16T07:43:33;22.60;;;16.20;;
19891;SDS011;10108;50.142;8.724;2023-04-16T07:45:59;25.50;;;16.65;;
19891;SDS011;10108;50.142;8.724;2023-04-16T07:48:25;21.80;;;16.08;;
19891;SDS011;10108;50.142;8.724;2023-04-16T07:50:51;23.00;;;16.73;;
19891;SDS011;10108;50.142;8.724;2023-04-16T07:53:17;22.98;;;15.88;;
19891;SDS011;10108;50.142;8.724;2023-04-16T07:55:43;25.50;;;16.13;;
19891;SDS011;10108;50.142;8.724;2023-04-16T07:58:10;21.85;;;16.10;;
19891;SDS011;10108;50.142;8.724;2023-04-16T08:00:36;24.27;;;16.65;;
19891;SDS011;10108;50.142;8.724;2023-04-16T08:03:02;21.35;;;15.93;;
19891;SDS011;10108;50.142;8.724;2023-04-16T08:05:28;24.23;;;16.60;;
19891;SDS011;10108;50.142;8.724;2023-04-16T08:07:54;23.92;;;16.90;;
19891;SDS011;10108;50.142;8.724;2023-04-16T08:10:21;24.75;;;17.23;;
19891;SDS011;10108;50.142;8.724;2023-04-16T08:12:47;22.85;;;16.55;;
19891;SDS011;10108;50.142;8.724;2023-04-16T08:15:13;25.25;;;16.58;;
19891;SDS011;10108;50.142;8.724;2023-04-16T08:17:39;23.17;;;16.10;;
19891;SDS011;10108;50.142;8.724;2023-04-16T08:20:05;23.15;;;16.35;;
19891;SDS011;10108;50.142;8.724;2023-04-16T08:22:32;22.80;;;16.02;;
19891;SDS011;10108;50.142;8.724;2023-04-16T08:24:58;21.98;;;16.02;;
19891;SDS011;10108;50.142;8.724;2023-04-16T08:27:24;22.83;;;15.77;;
19891;SDS011;10108;50.142;8.724;2023-04-16T08:29:50;22.88;;;15.75;;
19891;SDS011;10108;50.142;8.724;2023-04-16T08:32:16;21.50;;;15.00;;
19891;SDS011;10108;50.142;8.724;2023-04-16T08:34:42;22.27;;;14.30;;
19891;SDS011;10108;50.142;8.724;2023-04-16T08:37:08;22.33;;;15.48;;
19891;SDS011;10108;50.142;8.724;2023-04-16T08:39:35;23.25;;;15.15;;
19891;SDS011;10108;50.142;8.724;2023-04-16T08:42:04;21.17;;;14.50;;
19891;SDS011;10108;50.142;8.724;2023-04-16T08:44:31;20.55;;;14.40;;
19891;SDS011;10108;50.142;8.724;2023-04-16T08:46:59;20.77;;;14.63;;
19891;SDS011;10108;50.142;8.724;2023-04-16T08:49:26;19.73;;;13.65;;
19891;SDS011;10108;50.142;8.724;2023-04-16T08:51:53;20.67;;;13.80;;
19891;SDS011;10108;50.142;8.724;2023-04-16T08:54:30;22.52;;;14.35;;
19891;SDS011;10108;50.142;8.724;2023-04-16T08:57:17;19.95;;;14.10;;
19891;SDS011;10108;50.142;8.724;2023-04-16T08:59:45;20.88;;;14.05;;
19891;SDS011;10108;50.142;8.724;2023-04-16T09:02:12;19.42;;;14.13;;
19891;SDS011;10108;50.142;8.724;2023-04-16T09:04:40;22.13;;;14.18;;
19891;SDS011;10108;50.142;8.724;2023-04-16T09:07:09;20.55;;;14.30;;
19891;SDS011;10108;50.142;8.724;2023-04-16T09:09:36;21.38;;;14.38;;
19891;SDS011;10108;50.142;8.724;2023-04-16T09:12:04;23.00;;;14.70;;
19891;SDS011;10108;50.142;8.724;2023-04-16T09:14:30;20.42;;;13.65;;
19891;SDS011;10108;50.142;8.724;2023-04-16T09:16:56;20.13;;;14.07;;
19891;SDS011;10108;50.142;8.724;2023-04-16T09:19:25;20.17;;;13.68;;
19891;SDS011;10108;50.142;8.724;2023-04-16T09:21:52;20.35;;;14.00;;
19891;SDS011;10108;50.142;8.724;2023-04-16T09:24:18;21.90;;;14.45;;
19891;SDS011;10108;50.142;8.724;2023-04-16T09:26:45;20.40;;;14.00;;
19891;SDS011;10108;50.142;8.724;2023-04-16T09:29:11;20.98;;;13.65;;
19891;SDS011;10108;50.142;8.724;2023-04-16T09:32:02;21.90;;;13.07;;
19891;SDS011;10108;50.142;8.724;2023-04-16T09:34:31;20.58;;;13.55;;
19891;SDS011;10108;50.142;8.724;2023-04-16T09:37:13;20.30;;;13.13;;
19891;SDS011;10108;50.142;8.724;2023-04-16T09:39:43;22.63;;;13.98;;
19891;SDS011;10108;50.142;8.724;2023-04-16T09:42:10;20.35;;;13.25;;
19891;SDS011;10108;50.142;8.724;2023-04-16T09:44:38;21.58;;;12.55;;
19891;SDS011;10108;50.142;8.724;2023-04-16T09:47:07;22.45;;;13.07;;
19891;SDS011;10108;50.142;8.724;2023-04-16T09:49:34;20.60;;;11.95;;
19891;SDS011;10108;50.142;8.724;2023-04-16T09:52:08;18.92;;;12.48;;
19891;SDS011;10108;50.142;8.724;2023-04-16T09:54:50;18.90;;;13.07;;
19891;SDS011;10108;50.142;8.724;2023-04-16T09:57:20;19.98;;;12.73;;
19891;SDS011;10108;50.142;8.724;2023-04-16T09:59:48;21.65;;;12.38;;
19891;SDS011;10108;50.142;8.724;2023-04-16T10:02:17;18.92;;;12.80;;
19891;SDS011;10108;50.142;8.724;2023-04-16T10:04:48;19.55;;;12.45;;
19891;SDS011;10108;50.142;8.724;2023-04-16T10:07:16;18.67;;;12.48;;
19891;SDS011;10108;50.142;8.724;2023-04-16T10:09:43;20.02;;;12.57;;
19891;SDS011;10108;50.142;8.724;2023-04-16T10:12:09;17.98;;;12.00;;
19891;SDS011;10108;50.142;8.724;2023-04-16T10:14:37;21.25;;;12.23;;
19891;SDS011;10108;50.142;8.724;2023-04-16T10:17:03;17.77;;;11.40;;
19891;SDS011;10108;50.142;8.724;2023-04-16T10:19:30;20.85;;;11.85;;
19891;SDS011;10108;50.142;8.724;2023-04-16T10:21:57;19.75;;;11.45;;
19891;SDS011;10108;50.142;8.724;2023-04-16T10:24:27;16.63;;;10.90;;
19891;SDS011;10108;50.142;8.724;2023-04-16T10:26:54;17.15;;;11.02;;
19891;SDS011;10108;50.142;8.724;2023-04-16T10:29:20;19.13;;;12.00;;
19891;SDS011;10108;50.142;8.724;2023-04-16T10:31:47;18.13;;;11.38;;
19891;SDS011;10108;50.142;8.724;2023-04-16T10:34:14;18.98;;;11.98;;
19891;SDS011;10108;50.142;8.724;2023-04-16T10:36:41;19.48;;;11.15;;
19891;SDS011;10108;50.142;8.724;2023-04-16T10:39:10;19.20;;;11.75;;
19891;SDS011;10108;50.142;8.724;2023-04-16T10:41:38;18.90;;;11.75;;
19891;SDS011;10108;50.142;8.724;2023-04-16T10:44:05;18.25;;;12.38;;
19891;SDS011;10108;50.142;8.724;2023-04-16T10:46:38;19.10;;;12.85;;
19891;SDS011;10108;50.142;8.724;2023-04-16T10:49:24;18.95;;;13.48;;
19891;SDS011;10108;50.142;8.724;2023-04-16T10:54:22;19.10;;;12.93;;
19891;SDS011;10108;50.142;8.724;2023-04-16T10:56:53;20.17;;;13.20;;
19891;SDS011;10108;50.142;8.724;2023-04-16T10:59:22;20.45;;;13.95;;
19891;SDS011;10108;50.142;8.724;2023-04-16T11:01:58;21.77;;;14.50;;
19891;SDS011;10108;50.142;8.724;2023-04-16T11:04:27;24.90;;;14.00;;
19891;SDS011;10108;50.142;8.724;2023-04-16T11:12:20;21.77;;;15.45;;
19891;SDS011;10108;50.142;8.724;2023-04-16T11:14:48;23.92;;;14.82;;
19891;SDS011;10108;50.142;8.724;2023-04-16T11:17:16;23.65;;;15.13;;
19891;SDS011;10108;50.142;8.724;2023-04-16T11:19:43;19.95;;;14.68;;
19891;SDS011;10108;50.142;8.724;2023-04-16T11:22:12;24.25;;;16.98;;
19891;SDS011;10108;50.142;8.724;2023-04-16T11:24:42;23.33;;;16.88;;
19891;SDS011;10108;50.142;8.724;2023-04-16T11:27:10;24.15;;;17.85;;
19891;SDS011;10108;50.142;8.724;2023-04-16T11:29:40;29.02;;;17.98;;
19891;SDS011;10108;50.142;8.724;2023-04-16T11:32:07;26.30;;;18.27;;
19891;SDS011;10108;50.142;8.724;2023-04-16T11:34:33;25.67;;;17.90;;
19891;SDS011;10108;50.142;8.724;2023-04-16T11:36:59;27.80;;;19.23;;
19891;SDS011;10108;50.142;8.724;2023-04-16T11:39:25;25.48;;;18.00;;
19891;SDS011;10108;50.142;8.724;2023-04-16T11:41:52;28.67;;;19.55;;
19891;SDS011;10108;50.142;8.724;2023-04-16T11:44:22;27.17;;;18.33;;
19891;SDS011;10108;50.142;8.724;2023-04-16T11:46:50;27.65;;;18.75;;
19891;SDS011;10108;50.142;8.724;2023-04-16T11:49:20;28.25;;;19.77;;
19891;SDS011;10108;50.142;8.724;2023-04-16T11:51:52;26.17;;;19.42;;
19891;SDS011;10108;50.142;8.724;2023-04-16T11:54:19;26.38;;;19.33;;
19891;SDS011;10108;50.142;8.724;2023-04-16T11:56:46;25.95;;;19.23;;
19891;SDS011;10108;50.142;8.724;2023-04-16T12:01:48;27.50;;;18.98;;
19891;SDS011;10108;50.142;8.724;2023-04-16T12:04:16;26.30;;;18.85;;
19891;SDS011;10108;50.142;8.724;2023-04-16T12:07:03;27.02;;;19.25;;
19891;SDS011;10108;50.142;8.724;2023-04-16T12:09:29;27.73;;;19.88;;
19891;SDS011;10108;50.142;8.724;2023-04-16T12:11:56;25.83;;;19.20;;
19891;SDS011;10108;50.142;8.724;2023-04-16T12:14:22;25.90;;;19.02;;
19891;SDS011;10108;50.142;8.724;2023-04-16T12:16:48;30.00;;;20.23;;
19891;SDS011;10108;50.142;8.724;2023-04-16T12:19:14;30.45;;;20.95;;
19891;SDS011;10108;50.142;8.724;2023-04-16T12:21:44;32.08;;;22.55;;
19891;SDS011;10108;50.142;8.724;2023-04-16T12:24:14;30.30;;;22.50;;
19891;SDS011;10108;50.142;8.724;2023-04-16T12:26:42;33.38;;;23.10;;
19891;SDS011;10108;50.142;8.724;2023-04-16T12:29:18;31.35;;;22.58;;
19891;SDS011;10108;50.142;8.724;2023-04-16T12:31:46;36.33;;;24.23;;
19891;SDS011;10108;50.142;8.724;2023-04-16T12:34:14;34.38;;;23.70;;
19891;SDS011;10108;50.142;8.724;2023-04-16T12:36:42;35.80;;;24.70;;
19891;SDS011;10108;50.142;8.724;2023-04-16T12:39:09;30.92;;;23.13;;
19891;SDS011;10108;50.142;8.724;2023-04-16T12:41:36;34.67;;;24.35;;
19891;SDS011;10108;50.142;8.724;2023-04-16T12:44:04;35.08;;;25.00;;
19891;SDS011;10108;50.142;8.724;2023-04-16T12:46:34;36.22;;;24.30;;
19891;SDS011;10108;50.142;8.724;2023-04-16T12:49:01;34.30;;;23.88;;
19891;SDS011;10108;50.142;8.724;2023-04-16T12:51:28;36.08;;;24.70;;
19891;SDS011;10108;50.142;8.724;2023-04-16T12:53:54;38.95;;;24.08;;
19891;SDS011;10108;50.142;8.724;2023-04-16T12:56:20;33.72;;;23.75;;
19891;SDS011;10108;50.142;8.724;2023-04-16T12:58:46;34.53;;;23.95;;
19891;SDS011;10108;50.142;8.724;2023-04-16T13:01:17;32.50;;;23.33;;
19891;SDS011;10108;50.142;8.724;2023-04-16T13:03:44;36.10;;;22.95;;
19891;SDS011;10108;50.142;8.724;2023-04-16T13:06:10;35.40;;;22.75;;
19891;SDS011;10108;50.142;8.724;2023-04-16T13:08:37;34.33;;;22.20;;
19891;SDS011;10108;50.142;8.724;2023-04-16T13:11:03;32.60;;;22.10;;
19891;SDS011;10108;50.142;8.724;2023-04-16T13:13:29;32.60;;;21.30;;
19891;SDS011;10108;50.142;8.724;2023-04-16T13:15:56;31.40;;;21.48;;
19891;SDS011;10108;50.142;8.724;2023-04-16T13:18:22;29.25;;;20.35;;
19891;SDS011;10108;50.142;8.724;2023-04-16T13:20:49;29.55;;;20.55;;
19891;SDS011;10108;50.142;8.724;2023-04-16T13:23:15;33.47;;;20.88;;
19891;SDS011;10108;50.142;8.724;2023-04-16T13:25:41;29.48;;;20.67;;
19891;SDS011;10108;50.142;8.724;2023-04-16T13:28:07;32.38;;;21.23;;
19891;SDS011;10108;50.142;8.724;2023-04-16T13:30:33;31.05;;;21.60;;
19891;SDS011;10108;50.142;8.724;2023-04-16T13:33:00;32.10;;;20.70;;
19891;SDS011;10108;50.142;8.724;2023-04-16T13:35:26;30.50;;;21.42;;
19891;SDS011;10108;50.142;8.724;2023-04-16T13:37:52;28.90;;;20.30;;
19891;SDS011;10108;50.142;8.724;2023-04-16T13:40:18;29.05;;;20.60;;
19891;SDS011;10108;50.142;8.724;2023-04-16T13:42:44;31.58;;;21.50;;
19891;SDS011;10108;50.142;8.724;2023-04-16T13:45:10;32.30;;;21.85;;
19891;SDS011;10108;50.142;8.724;2023-04-16T13:47:39;30.25;;;20.50;;
19891;SDS011;10108;50.142;8.724;2023-04-16T13:50:09;29.98;;;20.98;;
19891;SDS011;10108;50.142;8.724;2023-04-16T13:52:35;29.67;;;21.48;;
19891;SDS011;10108;50.142;8.724;2023-04-16T13:55:01;32.72;;;20.05;;
19891;SDS011;10108;50.142;8.724;2023-04-16T13:57:28;31.92;;;20.77;;
19891;SDS011;10108;50.142;8.724;2023-04-16T13:59:54;28.50;;;19.75;;
19891;SDS011;10108;50.142;8.724;2023-04-16T14:02:21;29.20;;;20.15;;
19891;SDS011;10108;50.142;8.724;2023-04-16T14:04:47;30.45;;;19.67;;
19891;SDS011;10108;50.142;8.724;2023-04-16T14:07:14;28.88;;;20.25;;
19891;SDS011;10108;50.142;8.724;2023-04-16T14:09:40;27.80;;;19.40;;
19891;SDS011;10108;50.142;8.724;2023-04-16T14:12:06;27.98;;;19.23;;
19891;SDS011;10108;50.142;8.724;2023-04-16T14:14:33;27.83;;;19.38;;
19891;SDS011;10108;50.142;8.724;2023-04-16T14:16:59;30.23;;;19.92;;
19891;SDS011;10108;50.142;8.724;2023-04-16T14:19:27;29.45;;;19.27;;
19891;SDS011;10108;50.142;8.724;2023-04-16T14:21:53;25.90;;;18.58;;
19891;SDS011;10108;50.142;8.724;2023-04-16T14:24:19;30.15;;;20.45;;
19891;SDS011;10108;50.142;8.724;2023-04-16T14:26:45;29.13;;;19.98;;
19891;SDS011;10108;50.142;8.724;2023-04-16T14:29:12;29.63;;;21.00;;
19891;SDS011;10108;50.142;8.724;2023-04-16T14:31:38;31.33;;;21.40;;
19891;SDS011;10108;50.142;8.724;2023-04-16T14:34:04;29.38;;;20.00;;
19891;SDS011;10108;50.142;8.724;2023-04-16T14:36:30;27.52;;;20.08;;